createdAt,value
2019-03-17T00:02:50.272Z,0.90
2019-03-17T00:05:57.063Z,0.40
2019-03-17T00:09:06.347Z,0.40
2019-03-17T00:12:22.880Z,0.47
2019-03-17T00:15:30.025Z,0.40
2019-03-17T00:18:37.158Z,0.70
2019-03-17T00:21:44.527Z,0.70
2019-03-17T00:25:09.139Z,0.60
2019-03-17T00:28:09.985Z,1.33
2019-03-17T00:31:23.631Z,0.93
2019-03-17T00:34:44.018Z,0.70
2019-03-17T00:37:53.925Z,0.90
2019-03-17T00:41:10.696Z,0.93
2019-03-17T00:44:17.827Z,0.90
2019-03-17T00:47:25.061Z,0.93
2019-03-17T00:50:32.322Z,0.67
2019-03-17T00:53:49.011Z,0.80
2019-03-17T00:56:56.417Z,1.00
2019-03-17T01:00:13.336Z,1.53
2019-03-17T01:03:29.812Z,0.97
2019-03-17T01:06:36.963Z,0.73
2019-03-17T01:09:44.150Z,1.07
2019-03-17T01:12:51.358Z,0.90
2019-03-17T01:15:58.591Z,1.47
2019-03-17T01:19:05.815Z,1.20
2019-03-17T01:22:13.200Z,1.13
2019-03-17T01:25:18.726Z,1.00
2019-03-17T01:28:41.372Z,0.70
2019-03-17T01:31:48.623Z,1.20
2019-03-17T01:35:08.247Z,1.33
2019-03-17T01:38:04.726Z,1.23
2019-03-17T01:41:21.344Z,1.50
2019-03-17T01:44:28.634Z,1.07
2019-03-17T01:47:35.834Z,1.10
2019-03-17T01:50:43.029Z,1.33
2019-03-17T01:53:50.206Z,1.90
2019-03-17T01:56:57.327Z,1.90
2019-03-17T02:00:04.911Z,1.30
2019-03-17T02:03:21.353Z,1.40
2019-03-17T02:06:28.474Z,1.17
2019-03-17T02:09:35.728Z,1.10
2019-03-17T02:12:42.947Z,1.30
2019-03-17T02:15:50.360Z,1.30
2019-03-17T02:19:06.980Z,1.77
2019-03-17T02:22:14.174Z,1.13
2019-03-17T02:25:21.387Z,1.33
2019-03-17T02:28:28.514Z,1.77
2019-03-17T02:31:35.686Z,1.80
2019-03-17T02:34:42.823Z,1.17
2019-03-17T02:37:49.941Z,1.60
2019-03-17T02:40:57.331Z,1.40
2019-03-17T02:44:04.548Z,1.20
2019-03-17T02:47:11.883Z,1.70
2019-03-17T02:50:28.485Z,1.23
2019-03-17T02:53:35.604Z,1.33
2019-03-17T02:56:42.726Z,1.90
2019-03-17T02:59:50.029Z,1.63
2019-03-17T03:02:57.458Z,2.00
2019-03-17T03:06:20.165Z,1.10
2019-03-17T03:09:36.846Z,1.40
2019-03-17T03:12:44.069Z,1.00
2019-03-17T03:15:51.244Z,1.33
2019-03-17T03:18:58.368Z,1.03
2019-03-17T03:22:05.489Z,1.20
2019-03-17T03:25:12.691Z,1.47
2019-03-17T03:28:20.517Z,1.90
2019-03-17T03:31:37.367Z,0.93
2019-03-17T03:34:53.646Z,1.27
2019-03-17T03:38:00.903Z,1.30
2019-03-17T03:41:17.687Z,1.13
2019-03-17T03:44:24.820Z,1.20
2019-03-17T03:47:31.995Z,1.10
2019-03-17T03:50:39.110Z,0.83
2019-03-17T03:53:46.443Z,1.50
2019-03-17T03:56:53.663Z,1.67
2019-03-17T04:00:00.915Z,1.83
2019-03-17T04:03:08.143Z,1.47
2019-03-17T04:06:26.393Z,1.67
2019-03-17T04:09:24.104Z,2.07
2019-03-17T04:12:30.261Z,1.67
2019-03-17T04:15:37.485Z,1.40
2019-03-17T04:18:44.721Z,1.87
2019-03-17T04:21:51.848Z,1.73
2019-03-17T04:24:59.055Z,1.53
2019-03-17T04:28:06.602Z,1.77
2019-03-17T04:31:14.736Z,2.23
2019-03-17T04:34:31.237Z,1.27
2019-03-17T04:37:38.619Z,2.03
2019-03-17T04:40:55.218Z,2.47
2019-03-17T04:44:02.455Z,1.70
2019-03-17T04:47:09.604Z,1.23
2019-03-17T04:50:16.903Z,1.30
2019-03-17T04:53:24.086Z,1.20
2019-03-17T04:56:40.793Z,1.83
2019-03-17T04:59:47.921Z,1.43
2019-03-17T05:02:55.079Z,1.13
2019-03-17T05:06:02.096Z,0.93
2019-03-17T05:09:09.298Z,0.80
2019-03-17T05:12:16.592Z,0.90
2019-03-17T05:15:23.866Z,0.50
2019-03-17T05:18:31.006Z,1.20
2019-03-17T05:21:38.304Z,1.30
2019-03-17T05:24:45.539Z,1.17
2019-03-17T05:27:52.670Z,0.83
2019-03-17T05:30:59.878Z,0.50
2019-03-17T05:34:07.117Z,0.77
2019-03-17T05:37:14.441Z,0.70
2019-03-17T05:40:21.934Z,0.77
2019-03-17T05:43:38.382Z,1.23
2019-03-17T05:46:45.602Z,0.70
2019-03-17T05:49:52.741Z,1.30
2019-03-17T05:52:59.966Z,0.40
2019-03-17T05:56:07.220Z,0.63
2019-03-17T05:59:14.491Z,1.23
2019-03-17T06:02:21.707Z,1.00
2019-03-17T06:05:38.363Z,1.30
2019-03-17T06:08:45.538Z,0.70
2019-03-17T06:11:52.663Z,0.87
2019-03-17T06:14:59.826Z,0.70
2019-03-17T06:18:07.051Z,0.70
2019-03-17T06:21:14.258Z,0.40
2019-03-17T06:24:21.449Z,0.70
2019-03-17T06:27:28.585Z,0.97
2019-03-17T06:30:35.710Z,0.60
2019-03-17T06:33:43.020Z,0.37
2019-03-17T06:36:50.135Z,1.00
2019-03-17T06:39:57.402Z,0.90
2019-03-17T06:43:04.708Z,0.40
2019-03-17T06:46:12.056Z,0.80
2019-03-17T06:49:19.276Z,0.40
2019-03-17T06:52:36.380Z,0.90
2019-03-17T06:55:52.751Z,0.40
2019-03-17T06:58:59.912Z,0.77
2019-03-17T07:02:07.310Z,0.20
2019-03-17T07:05:23.983Z,0.00
2019-03-17T07:08:31.160Z,0.00
2019-03-17T07:11:38.379Z,0.00
2019-03-17T07:14:45.520Z,0.00
2019-03-17T07:17:52.806Z,0.03
2019-03-17T07:21:09.496Z,0.00
2019-03-17T07:24:16.618Z,0.10
2019-03-17T07:27:23.840Z,0.20
2019-03-17T07:30:31.044Z,0.10
2019-03-17T07:33:38.163Z,0.10
2019-03-17T07:36:45.378Z,0.20
2019-03-17T07:39:52.583Z,0.20
2019-03-17T07:42:59.808Z,0.40
2019-03-17T07:46:06.936Z,0.20
2019-03-17T07:49:14.220Z,0.00
2019-03-17T07:52:21.322Z,0.00
2019-03-17T07:55:28.543Z,0.10
2019-03-17T07:58:35.691Z,0.00
2019-03-17T08:01:42.819Z,0.00
2019-03-17T08:04:50.270Z,0.00
2019-03-17T08:08:08.685Z,0.00
2019-03-17T08:11:06.352Z,0.00
2019-03-17T08:14:14.021Z,0.00
2019-03-17T08:17:30.391Z,0.10
2019-03-17T08:20:37.608Z,0.10
2019-03-17T08:23:44.774Z,0.07
2019-03-17T08:27:01.940Z,0.20
2019-03-17T08:30:18.632Z,0.03
2019-03-17T08:33:35.107Z,0.17
2019-03-17T08:36:42.266Z,0.10
2019-03-17T08:39:48.345Z,0.00
2019-03-17T08:43:04.667Z,0.20
2019-03-17T08:46:11.787Z,0.10
2019-03-17T08:49:18.928Z,0.10
2019-03-17T08:52:26.150Z,0.00
2019-03-17T08:55:33.370Z,0.03
2019-03-17T08:58:40.601Z,0.23
2019-03-17T09:01:47.874Z,0.07
2019-03-17T09:05:04.962Z,0.10
2019-03-17T09:08:33.955Z,0.00
2019-03-17T09:11:30.287Z,0.10
2019-03-17T09:14:46.983Z,0.10
2019-03-17T09:17:54.308Z,0.10
2019-03-17T09:21:11.000Z,0.17
2019-03-17T09:24:18.201Z,0.10
2019-03-17T09:27:25.364Z,0.30
2019-03-17T09:30:32.528Z,0.30
2019-03-17T09:33:39.745Z,0.20
2019-03-17T09:36:46.952Z,0.77
2019-03-17T09:39:54.086Z,0.20
2019-03-17T09:43:01.228Z,0.30
2019-03-17T09:46:08.486Z,0.60
2019-03-17T09:49:15.618Z,0.30
2019-03-17T09:52:22.949Z,0.10
2019-03-17T09:55:30.073Z,0.10
2019-03-17T09:58:37.655Z,0.37
2019-03-17T10:01:54.419Z,0.00
2019-03-17T10:05:11.052Z,0.10
2019-03-17T10:08:27.643Z,0.60
2019-03-17T10:11:34.866Z,0.20
2019-03-17T10:14:42.002Z,0.13
2019-03-17T10:17:49.225Z,0.40
2019-03-17T10:21:06.087Z,0.47
2019-03-17T10:24:13.310Z,0.10
2019-03-17T10:27:29.976Z,0.40
2019-03-17T10:30:37.165Z,0.10
2019-03-17T10:33:45.750Z,0.30
2019-03-17T10:36:52.943Z,0.20
2019-03-17T10:39:59.598Z,0.13
2019-03-17T10:43:06.767Z,0.77
2019-03-17T10:46:13.905Z,0.20
2019-03-17T10:49:21.945Z,0.10
2019-03-17T10:52:29.072Z,0.10
2019-03-17T10:55:36.211Z,0.10
2019-03-17T10:58:43.335Z,0.37
2019-03-17T11:01:50.499Z,0.23
2019-03-17T11:04:57.624Z,0.30
2019-03-17T11:08:04.966Z,0.50
2019-03-17T11:11:12.508Z,0.40
2019-03-17T11:14:19.634Z,0.20
2019-03-17T11:17:26.760Z,0.00
2019-03-17T11:20:34.006Z,0.20
2019-03-17T11:23:41.129Z,0.30
2019-03-17T11:26:48.465Z,0.10
2019-03-17T11:30:05.979Z,0.10
2019-03-17T11:33:13.205Z,0.20
2019-03-17T11:36:20.366Z,0.20
2019-03-17T11:39:37.196Z,0.10
2019-03-17T11:42:36.453Z,0.20
2019-03-17T11:45:43.785Z,0.20
2019-03-17T11:48:51.056Z,0.33
2019-03-17T11:51:58.367Z,0.20
2019-03-17T11:55:06.374Z,0.10
2019-03-17T11:58:22.891Z,0.10
2019-03-17T12:01:39.642Z,0.20
2019-03-17T12:04:46.761Z,0.30
2019-03-17T12:07:53.946Z,0.17
2019-03-17T12:11:01.171Z,0.10
2019-03-17T12:14:09.879Z,0.20
2019-03-17T12:17:17.363Z,0.00
2019-03-17T12:20:34.052Z,0.20
2019-03-17T12:23:41.331Z,0.20
2019-03-17T12:26:48.458Z,0.20
2019-03-17T12:29:55.662Z,0.17
2019-03-17T12:33:02.890Z,0.07
2019-03-17T12:36:10.269Z,0.10
2019-03-17T12:39:16.970Z,0.00
2019-03-17T12:42:24.180Z,0.10
2019-03-17T12:45:31.456Z,0.10
2019-03-17T12:48:38.693Z,0.40
2019-03-17T12:51:45.914Z,0.50
2019-03-17T12:54:53.112Z,0.20
2019-03-17T12:58:00.541Z,0.03
2019-03-17T13:01:07.684Z,0.00
2019-03-17T13:04:14.910Z,0.10
2019-03-17T13:07:22.041Z,0.10
2019-03-17T13:10:29.404Z,0.20
2019-03-17T13:13:46.009Z,0.10
2019-03-17T13:16:53.139Z,0.13
2019-03-17T13:20:00.384Z,0.20
2019-03-17T13:23:07.554Z,0.20
2019-03-17T13:26:14.785Z,0.10
2019-03-17T13:29:21.911Z,0.10
2019-03-17T13:32:29.237Z,0.10
2019-03-17T13:35:36.382Z,0.10
2019-03-17T13:38:43.666Z,0.10
2019-03-17T13:42:00.375Z,0.03
2019-03-17T13:45:08.147Z,0.10
2019-03-17T13:48:15.363Z,0.13
2019-03-17T13:51:22.679Z,0.07
2019-03-17T13:54:29.378Z,0.00
2019-03-17T13:57:57.007Z,0.00
2019-03-17T14:01:04.323Z,0.10
2019-03-17T14:04:11.438Z,0.10
2019-03-17T14:07:18.773Z,0.13
2019-03-17T14:10:25.902Z,0.23
2019-03-17T14:13:33.280Z,0.23
2019-03-17T14:16:40.438Z,0.37
2019-03-17T14:19:47.940Z,3.80
2019-03-17T14:22:55.065Z,0.47
2019-03-17T14:26:02.188Z,0.50
2019-03-17T14:29:09.663Z,0.20
2019-03-17T14:32:16.779Z,0.33
2019-03-17T14:35:24.039Z,0.20
2019-03-17T14:38:31.296Z,0.33
2019-03-17T14:41:38.054Z,0.13
2019-03-17T14:44:45.346Z,0.10
2019-03-17T14:47:52.483Z,0.10
2019-03-17T14:50:59.604Z,0.10
2019-03-17T14:54:06.871Z,0.30
2019-03-17T14:57:13.998Z,0.13
2019-03-17T15:00:21.204Z,0.17
2019-03-17T15:03:28.324Z,0.10
2019-03-17T15:06:35.607Z,0.33
2019-03-17T15:09:42.753Z,1.10
2019-03-17T15:12:49.966Z,0.40
2019-03-17T15:16:02.753Z,0.10
2019-03-17T15:19:06.412Z,0.10
2019-03-17T15:22:13.606Z,0.20
2019-03-17T15:25:20.704Z,0.10
2019-03-17T15:28:27.878Z,0.17
2019-03-17T15:31:35.012Z,0.30
2019-03-17T15:34:42.199Z,0.20
2019-03-17T15:37:49.513Z,0.40
2019-03-17T15:40:56.809Z,0.23
2019-03-17T15:44:04.126Z,0.20
2019-03-17T15:47:11.255Z,0.17
2019-03-17T15:50:18.521Z,0.17
2019-03-17T15:53:25.765Z,0.30
2019-03-17T15:56:42.356Z,0.20
2019-03-17T15:59:49.560Z,0.67
2019-03-17T16:02:56.685Z,0.67
2019-03-17T16:06:03.956Z,0.20
2019-03-17T16:09:11.146Z,0.10
2019-03-17T16:12:18.430Z,0.10
2019-03-17T16:15:35.216Z,0.00
2019-03-17T16:18:42.376Z,0.00
2019-03-17T16:21:49.594Z,0.00
2019-03-17T16:25:06.853Z,0.10
2019-03-17T16:28:14.254Z,0.10
2019-03-17T16:31:21.495Z,0.30
2019-03-17T16:34:28.679Z,0.10
2019-03-17T16:37:35.887Z,0.10
2019-03-17T16:40:43.095Z,0.10
2019-03-17T16:43:50.379Z,0.00
2019-03-17T16:46:57.742Z,0.10
2019-03-17T16:50:06.170Z,0.10
2019-03-17T16:53:13.368Z,0.03
2019-03-17T16:56:20.482Z,0.10
2019-03-17T16:59:36.728Z,0.00
2019-03-17T17:02:44.283Z,0.20
2019-03-17T17:06:00.840Z,0.00
2019-03-17T17:09:08.242Z,0.17
2019-03-17T17:12:24.712Z,0.40
2019-03-17T17:15:32.147Z,0.07
2019-03-17T17:18:48.744Z,0.40
2019-03-17T17:21:58.602Z,0.40
2019-03-17T17:25:14.436Z,0.00
2019-03-17T17:28:31.039Z,0.17
2019-03-17T17:31:38.276Z,3.10
2019-03-17T17:34:45.430Z,0.33
2019-03-17T17:37:52.838Z,0.20
2019-03-17T17:41:11.249Z,0.23
2019-03-17T17:44:37.816Z,0.20
2019-03-17T17:47:45.189Z,0.40
2019-03-17T17:51:01.783Z,0.27
2019-03-17T17:54:09.017Z,0.17
2019-03-17T17:57:16.225Z,0.20
2019-03-17T18:00:23.512Z,0.30
2019-03-17T18:03:30.630Z,0.77
2019-03-17T18:06:37.816Z,0.50
2019-03-17T18:09:44.950Z,0.40
2019-03-17T18:12:52.265Z,0.33
2019-03-17T18:15:59.390Z,0.40
2019-03-17T18:19:06.602Z,0.43
2019-03-17T18:22:13.922Z,0.40
2019-03-17T18:25:21.085Z,0.23
2019-03-17T18:28:37.897Z,0.20
2019-03-17T18:31:45.127Z,0.40
2019-03-17T18:35:01.751Z,0.10
2019-03-17T18:38:09.091Z,0.20
2019-03-17T18:41:16.307Z,0.13
2019-03-17T18:44:32.971Z,0.17
2019-03-17T18:47:40.224Z,0.10
2019-03-17T18:50:45.835Z,0.10
2019-03-17T18:53:53.061Z,0.10
2019-03-17T18:57:00.335Z,0.27
2019-03-17T19:00:17.604Z,0.37
2019-03-17T19:03:24.849Z,0.10
2019-03-17T19:06:32.256Z,0.30
2019-03-17T19:09:39.482Z,0.20
2019-03-17T19:12:47.086Z,0.20
2019-03-17T19:15:54.210Z,0.20
2019-03-17T19:19:01.323Z,0.10
2019-03-17T19:22:08.482Z,0.20
2019-03-17T19:25:16.044Z,0.80
2019-03-17T19:28:23.244Z,0.53
2019-03-17T19:31:30.331Z,0.47
2019-03-17T19:34:37.559Z,0.23
2019-03-17T19:37:44.785Z,0.87
2019-03-17T19:40:52.007Z,1.10
2019-03-17T19:43:59.335Z,2.30
2019-03-17T19:47:06.637Z,0.53
2019-03-17T19:50:23.474Z,0.00
2019-03-17T19:53:29.102Z,0.23
2019-03-17T19:56:45.787Z,0.10
2019-03-17T19:59:53.081Z,0.30
2019-03-17T20:03:09.809Z,0.10
2019-03-17T20:06:26.547Z,0.30
2019-03-17T20:09:33.891Z,0.00
2019-03-17T20:12:50.668Z,0.00
2019-03-17T20:16:07.223Z,0.10
2019-03-17T20:19:14.566Z,0.17
2019-03-17T20:22:31.226Z,0.43
2019-03-17T20:25:38.625Z,0.00
2019-03-17T20:28:55.141Z,0.30
2019-03-17T20:32:02.464Z,0.10
2019-03-17T20:35:09.911Z,0.00
2019-03-17T20:38:26.422Z,0.10
2019-03-17T20:41:43.139Z,0.33
2019-03-17T20:44:59.845Z,0.17
2019-03-17T20:48:07.016Z,0.10
2019-03-17T20:51:14.294Z,0.10
2019-03-17T20:54:21.478Z,0.13
2019-03-17T20:57:28.621Z,0.10
2019-03-17T21:00:35.952Z,0.30
2019-03-17T21:03:52.740Z,0.10
2019-03-17T21:06:59.871Z,0.33
2019-03-17T21:10:08.435Z,0.00
2019-03-17T21:13:15.455Z,0.10
2019-03-17T21:16:22.665Z,0.10
2019-03-17T21:19:29.848Z,0.10
2019-03-17T21:22:36.987Z,0.00
2019-03-17T21:25:45.789Z,0.00
2019-03-17T21:28:52.920Z,0.40
2019-03-17T21:32:00.319Z,0.30
2019-03-17T21:35:07.629Z,0.00
2019-03-17T21:38:14.760Z,0.10
2019-03-17T21:41:21.881Z,0.10
2019-03-17T21:44:29.108Z,0.10
2019-03-17T21:47:36.315Z,0.20
2019-03-17T21:50:43.519Z,0.23
2019-03-17T21:53:50.719Z,0.10
2019-03-17T21:56:57.904Z,0.63
2019-03-17T22:00:05.726Z,0.20
2019-03-17T22:03:22.277Z,0.10
2019-03-17T22:06:29.303Z,0.10
2019-03-17T22:09:36.534Z,0.73
2019-03-17T22:12:43.766Z,0.20
2019-03-17T22:15:50.960Z,0.03
2019-03-17T22:18:58.451Z,0.17
2019-03-17T22:22:15.047Z,0.20
2019-03-17T22:25:22.254Z,0.50
2019-03-17T22:28:29.382Z,0.50
2019-03-17T22:31:36.683Z,0.20
2019-03-17T22:34:44.402Z,0.00
2019-03-17T22:37:51.626Z,0.00
2019-03-17T22:40:58.743Z,0.30
2019-03-17T22:44:06.048Z,0.30
2019-03-17T22:47:13.270Z,0.10
2019-03-17T22:50:20.562Z,0.10
2019-03-17T22:53:27.686Z,0.10
2019-03-17T22:56:34.894Z,0.40
2019-03-17T22:59:52.552Z,0.40
2019-03-17T23:02:59.673Z,0.30
2019-03-17T23:06:06.850Z,0.20
2019-03-17T23:09:13.966Z,0.20
2019-03-17T23:12:21.085Z,0.10
2019-03-17T23:15:28.320Z,0.10
2019-03-17T23:18:35.614Z,0.03
2019-03-17T23:21:42.737Z,0.07
2019-03-17T23:24:50.597Z,0.73
2019-03-17T23:28:06.924Z,0.60
2019-03-17T23:31:14.122Z,0.10
2019-03-17T23:34:21.250Z,0.20
2019-03-17T23:37:28.369Z,0.30
2019-03-17T23:40:35.520Z,0.00
2019-03-17T23:43:42.756Z,0.30
2019-03-17T23:46:49.882Z,0.50
2019-03-17T23:49:57.668Z,0.10
2019-03-17T23:53:14.103Z,0.00
2019-03-17T23:56:21.232Z,0.13
2019-03-17T23:59:28.350Z,0.60
